createdAt,value
2019-03-09T00:00:22.602Z,5.81
2019-03-09T00:01:22.596Z,5.93
2019-03-09T00:02:22.600Z,5.93
2019-03-09T00:03:22.586Z,5.87
2019-03-09T00:04:22.559Z,5.93
2019-03-09T00:05:22.551Z,5.90
2019-03-09T00:06:22.534Z,5.95
2019-03-09T00:07:22.521Z,5.95
2019-03-09T00:08:22.556Z,5.93
2019-03-09T00:09:22.524Z,5.92
2019-03-09T00:10:22.500Z,5.92
2019-03-09T00:11:23.437Z,5.96
2019-03-09T00:12:22.484Z,6.01
2019-03-09T00:13:22.519Z,5.92
2019-03-09T00:14:22.469Z,6.01
2019-03-09T00:15:22.687Z,6.03
2019-03-09T00:16:22.471Z,5.96
2019-03-09T00:17:22.441Z,5.90
2019-03-09T00:18:22.431Z,6.03
2019-03-09T00:19:22.910Z,5.95
2019-03-09T00:20:22.410Z,5.96
2019-03-09T00:21:22.385Z,5.92
2019-03-09T00:22:22.391Z,5.90
2019-03-09T00:23:22.389Z,5.90
2019-03-09T00:24:22.403Z,5.88
2019-03-09T00:25:22.375Z,5.87
2019-03-09T00:26:22.323Z,5.78
2019-03-09T00:27:29.464Z,5.78
2019-03-09T00:28:23.309Z,5.81
2019-03-09T00:29:22.382Z,5.83
2019-03-09T00:30:22.321Z,5.80
2019-03-09T00:31:22.299Z,5.73
2019-03-09T00:32:22.278Z,5.84
2019-03-09T00:33:22.294Z,5.78
2019-03-09T00:34:22.305Z,5.84
2019-03-09T00:35:22.258Z,5.80
2019-03-09T00:36:22.250Z,5.83
2019-03-09T00:37:22.225Z,5.75
2019-03-09T00:38:22.214Z,5.74
2019-03-09T00:39:22.225Z,5.83
2019-03-09T00:40:22.254Z,5.75
2019-03-09T00:41:22.181Z,5.77
2019-03-09T00:42:22.176Z,5.73
2019-03-09T00:43:22.174Z,5.75
2019-03-09T00:44:22.148Z,5.65
2019-03-09T00:45:22.178Z,5.77
2019-03-09T00:46:22.144Z,5.74
2019-03-09T00:47:22.152Z,5.78
2019-03-09T00:48:22.107Z,5.75
2019-03-09T00:49:22.151Z,5.67
2019-03-09T00:50:22.086Z,5.75
2019-03-09T00:51:22.143Z,5.83
2019-03-09T00:52:22.067Z,5.62
2019-03-09T00:53:22.057Z,5.65
2019-03-09T00:54:22.052Z,5.77
2019-03-09T00:55:22.036Z,5.69
2019-03-09T00:56:22.024Z,5.74
2019-03-09T00:57:22.034Z,5.73
2019-03-09T00:58:22.018Z,5.77
2019-03-09T00:59:21.989Z,5.63
2019-03-09T01:00:22.006Z,5.63
2019-03-09T01:01:21.964Z,5.65
2019-03-09T01:02:22.015Z,5.74
2019-03-09T01:03:21.955Z,5.73
2019-03-09T01:04:21.966Z,5.78
2019-03-09T01:05:21.962Z,5.73
2019-03-09T01:06:21.943Z,5.74
2019-03-09T01:07:22.000Z,5.78
2019-03-09T01:08:21.965Z,5.75
2019-03-09T01:09:21.902Z,5.70
2019-03-09T01:10:21.884Z,5.75
2019-03-09T01:11:21.882Z,5.69
2019-03-09T01:12:21.860Z,5.81
2019-03-09T01:13:21.898Z,5.69
2019-03-09T01:14:21.843Z,5.78
2019-03-09T01:15:21.872Z,5.75
2019-03-09T01:16:21.834Z,5.78
2019-03-09T01:17:21.887Z,5.83
2019-03-09T01:18:21.813Z,5.84
2019-03-09T01:19:21.846Z,5.90
2019-03-09T01:20:21.783Z,5.85
2019-03-09T01:21:21.791Z,5.92
2019-03-09T01:22:21.798Z,5.96
2019-03-09T01:23:21.761Z,5.93
2019-03-09T01:24:21.738Z,5.99
2019-03-09T01:25:21.756Z,5.92
2019-03-09T01:26:21.732Z,5.93
2019-03-09T01:27:21.736Z,5.98
2019-03-09T01:28:21.734Z,6.01
2019-03-09T01:29:21.743Z,5.95
2019-03-09T01:30:21.734Z,5.95
2019-03-09T01:31:21.662Z,5.99
2019-03-09T01:32:21.659Z,5.98
2019-03-09T01:33:21.668Z,6.02
2019-03-09T01:34:21.634Z,6.02
2019-03-09T01:35:21.696Z,6.06
2019-03-09T01:36:21.650Z,6.05
2019-03-09T01:37:21.604Z,5.98
2019-03-09T01:38:21.593Z,5.99
2019-03-09T01:39:21.585Z,6.05
2019-03-09T01:40:21.592Z,6.10
2019-03-09T01:41:22.108Z,6.02
2019-03-09T01:42:21.561Z,6.05
2019-03-09T01:43:21.550Z,6.03
2019-03-09T01:44:21.526Z,6.10
2019-03-09T01:45:21.507Z,6.11
2019-03-09T01:46:21.546Z,6.08
2019-03-09T01:47:21.507Z,6.03
2019-03-09T01:48:21.486Z,6.11
2019-03-09T01:49:21.492Z,6.11
2019-03-09T01:50:21.490Z,6.02
2019-03-09T01:51:21.445Z,6.06
2019-03-09T01:52:21.454Z,6.02
2019-03-09T01:53:21.428Z,6.10
2019-03-09T01:54:21.441Z,5.99
2019-03-09T01:55:21.441Z,5.96
2019-03-09T01:56:21.399Z,5.98
2019-03-09T01:57:21.441Z,5.95
2019-03-09T01:58:21.377Z,6.05
2019-03-09T01:59:21.368Z,6.03
2019-03-09T02:00:21.360Z,5.96
2019-03-09T02:01:21.363Z,6.03
2019-03-09T02:02:21.362Z,6.08
2019-03-09T02:03:21.394Z,6.02
2019-03-09T02:04:21.312Z,6.11
2019-03-09T02:05:21.360Z,6.10
2019-03-09T02:06:21.304Z,6.05
2019-03-09T02:07:21.288Z,6.02
2019-03-09T02:08:21.293Z,6.03
2019-03-09T02:09:21.302Z,6.11
2019-03-09T02:10:21.260Z,6.11
2019-03-09T02:11:21.265Z,6.08
2019-03-09T02:12:21.234Z,6.13
2019-03-09T02:13:21.222Z,6.16
2019-03-09T02:14:21.233Z,6.14
2019-03-09T02:15:21.209Z,6.11
2019-03-09T02:16:21.212Z,6.24
2019-03-09T02:17:21.195Z,6.13
2019-03-09T02:18:21.201Z,6.16
2019-03-09T02:19:21.164Z,6.24
2019-03-09T02:20:21.210Z,6.25
2019-03-09T02:21:21.139Z,6.24
2019-03-09T02:22:21.140Z,6.24
2019-03-09T02:23:21.145Z,6.21
2019-03-09T02:24:21.123Z,6.28
2019-03-09T02:25:21.630Z,6.20
2019-03-09T02:26:21.136Z,6.24
2019-03-09T02:27:21.081Z,6.30
2019-03-09T02:28:21.154Z,6.25
2019-03-09T02:29:21.075Z,6.39
2019-03-09T02:30:21.088Z,6.33
2019-03-09T02:31:21.051Z,6.35
2019-03-09T02:32:21.077Z,6.32
2019-03-09T02:33:21.044Z,6.43
2019-03-09T02:34:21.019Z,6.40
2019-03-09T02:35:21.041Z,6.40
2019-03-09T02:36:21.006Z,6.43
2019-03-09T02:37:21.011Z,6.46
2019-03-09T02:38:20.992Z,6.40
2019-03-09T02:39:20.990Z,6.42
2019-03-09T02:40:22.968Z,6.46
2019-03-09T02:41:20.926Z,6.40
2019-03-09T02:42:20.923Z,6.46
2019-03-09T02:43:20.947Z,6.40
2019-03-09T02:44:20.931Z,6.43
2019-03-09T02:45:20.951Z,6.38
2019-03-09T02:46:20.912Z,6.45
2019-03-09T02:47:20.907Z,6.45
2019-03-09T02:48:20.872Z,6.43
2019-03-09T02:49:20.849Z,6.48
2019-03-09T02:50:20.849Z,6.46
2019-03-09T02:51:20.852Z,6.43
2019-03-09T02:52:20.830Z,6.42
2019-03-09T02:53:21.633Z,6.45
2019-03-09T02:54:20.821Z,6.42
2019-03-09T02:55:20.795Z,6.51
2019-03-09T02:56:20.781Z,6.51
2019-03-09T02:57:20.854Z,6.54
2019-03-09T02:58:20.781Z,6.48
2019-03-09T02:59:20.783Z,6.51
2019-03-09T03:00:21.622Z,6.51
2019-03-09T03:01:20.731Z,6.46
2019-03-09T03:02:20.770Z,6.50
2019-03-09T03:03:20.705Z,6.46
2019-03-09T03:04:20.707Z,6.50
2019-03-09T03:05:20.718Z,6.46
2019-03-09T03:06:21.628Z,6.46
2019-03-09T03:07:20.693Z,6.48
2019-03-09T03:08:20.654Z,6.48
2019-03-09T03:09:20.649Z,6.64
2019-03-09T03:10:20.629Z,6.53
2019-03-09T03:11:20.633Z,6.57
2019-03-09T03:12:20.673Z,6.63
2019-03-09T03:13:20.616Z,6.55
2019-03-09T03:14:20.589Z,6.57
2019-03-09T03:15:20.584Z,6.68
2019-03-09T03:16:20.562Z,6.61
2019-03-09T03:17:20.552Z,6.54
2019-03-09T03:18:20.570Z,6.68
2019-03-09T03:19:20.562Z,6.58
2019-03-09T03:20:20.543Z,6.61
2019-03-09T03:21:20.573Z,6.58
2019-03-09T03:22:20.501Z,6.58
2019-03-09T03:23:20.557Z,6.61
2019-03-09T03:24:20.479Z,6.60
2019-03-09T03:25:20.476Z,6.68
2019-03-09T03:26:20.510Z,6.72
2019-03-09T03:27:20.475Z,6.72
2019-03-09T03:28:20.477Z,6.75
2019-03-09T03:29:20.493Z,6.69
2019-03-09T03:30:20.415Z,6.76
2019-03-09T03:31:20.402Z,6.65
2019-03-09T03:32:20.415Z,6.75
2019-03-09T03:33:20.422Z,6.65
2019-03-09T03:34:20.411Z,6.69
2019-03-09T03:35:20.422Z,6.81
2019-03-09T03:36:20.362Z,6.79
2019-03-09T03:37:20.358Z,6.75
2019-03-09T03:38:20.342Z,6.72
2019-03-09T03:39:20.354Z,6.75
2019-03-09T03:40:20.382Z,6.73
2019-03-09T03:41:20.325Z,6.78
2019-03-09T03:42:20.321Z,6.79
2019-03-09T03:43:20.290Z,6.75
2019-03-09T03:44:20.273Z,6.72
2019-03-09T03:45:20.267Z,6.76
2019-03-09T03:46:20.298Z,6.79
2019-03-09T03:47:20.270Z,6.79
2019-03-09T03:48:20.257Z,6.73
2019-03-09T03:49:20.260Z,6.73
2019-03-09T03:50:20.237Z,6.78
2019-03-09T03:51:21.178Z,6.75
2019-03-09T03:52:20.211Z,6.86
2019-03-09T03:53:20.208Z,6.78
2019-03-09T03:54:21.217Z,6.76
2019-03-09T03:55:20.182Z,6.81
2019-03-09T03:56:20.215Z,6.83
2019-03-09T03:57:20.179Z,6.94
2019-03-09T03:58:20.132Z,6.79
2019-03-09T03:59:20.132Z,6.83
2019-03-09T04:00:20.122Z,6.91
2019-03-09T04:01:20.132Z,6.86
2019-03-09T04:02:20.141Z,6.89
2019-03-09T04:03:20.066Z,6.89
2019-03-09T04:04:20.112Z,6.87
2019-03-09T04:05:20.077Z,6.79
2019-03-09T04:06:20.042Z,6.82
2019-03-09T04:07:20.046Z,6.78
2019-03-09T04:08:20.057Z,6.83
2019-03-09T04:09:20.631Z,6.79
2019-03-09T04:10:20.005Z,6.82
2019-03-09T04:11:19.993Z,6.86
2019-03-09T04:12:19.979Z,6.76
2019-03-09T04:13:20.005Z,6.76
2019-03-09T04:14:19.986Z,6.81
2019-03-09T04:15:20.019Z,6.78
2019-03-09T04:16:19.956Z,6.86
2019-03-09T04:17:19.958Z,6.89
2019-03-09T04:18:19.969Z,6.81
2019-03-09T04:19:19.905Z,6.91
2019-03-09T04:20:19.910Z,6.87
2019-03-09T04:21:19.933Z,6.90
2019-03-09T04:22:19.869Z,6.89
2019-03-09T04:23:19.904Z,6.89
2019-03-09T04:24:19.860Z,6.89
2019-03-09T04:25:19.861Z,6.96
2019-03-09T04:26:20.210Z,6.91
2019-03-09T04:27:19.827Z,6.87
2019-03-09T04:28:19.829Z,6.89
2019-03-09T04:29:19.787Z,6.96
2019-03-09T04:30:19.809Z,6.93
2019-03-09T04:31:19.843Z,6.99
2019-03-09T04:32:19.761Z,6.94
2019-03-09T04:33:19.750Z,7.01
2019-03-09T04:34:19.751Z,6.99
2019-03-09T04:35:19.753Z,7.00
2019-03-09T04:36:19.739Z,6.96
2019-03-09T04:37:19.731Z,6.93
2019-03-09T04:38:19.722Z,6.93
2019-03-09T04:39:19.677Z,7.05
2019-03-09T04:40:19.677Z,7.09
2019-03-09T04:41:19.682Z,7.05
2019-03-09T04:42:19.703Z,7.00
2019-03-09T04:43:19.669Z,7.11
2019-03-09T04:44:19.662Z,7.08
2019-03-09T04:45:19.616Z,7.21
2019-03-09T04:46:19.605Z,7.12
2019-03-09T04:47:19.596Z,7.16
2019-03-09T04:48:19.626Z,7.18
2019-03-09T04:49:19.579Z,7.16
2019-03-09T04:50:19.588Z,7.19
2019-03-09T04:51:19.592Z,7.14
2019-03-09T04:52:19.565Z,7.16
2019-03-09T04:53:19.585Z,7.12
2019-03-09T04:54:19.528Z,7.18
2019-03-09T04:55:19.518Z,7.14
2019-03-09T04:56:20.514Z,7.12
2019-03-09T04:57:19.515Z,7.16
2019-03-09T04:58:19.502Z,7.15
2019-03-09T04:59:19.509Z,7.12
2019-03-09T05:00:19.455Z,7.15
2019-03-09T05:01:19.476Z,7.15
2019-03-09T05:02:19.463Z,7.23
2019-03-09T05:03:19.445Z,7.29
2019-03-09T05:04:19.467Z,7.16
2019-03-09T05:05:19.402Z,7.15
2019-03-09T05:06:19.386Z,7.33
2019-03-09T05:07:19.389Z,7.26
2019-03-09T05:08:19.384Z,7.21
2019-03-09T05:09:19.392Z,7.18
2019-03-09T05:10:19.401Z,7.15
2019-03-09T05:11:19.360Z,7.14
2019-03-09T05:12:19.379Z,7.18
2019-03-09T05:13:19.314Z,7.12
2019-03-09T05:14:19.328Z,7.15
2019-03-09T05:15:19.367Z,7.14
2019-03-09T05:16:19.286Z,7.05
2019-03-09T05:17:19.296Z,7.08
2019-03-09T05:18:19.282Z,7.08
2019-03-09T05:19:19.244Z,7.07
2019-03-09T05:20:19.242Z,6.99
2019-03-09T05:21:19.291Z,7.11
2019-03-09T05:22:19.252Z,6.97
2019-03-09T05:23:19.315Z,7.01
2019-03-09T05:24:19.216Z,7.04
2019-03-09T05:25:19.210Z,7.04
2019-03-09T05:26:19.227Z,7.11
2019-03-09T05:27:19.173Z,7.05
2019-03-09T05:28:19.162Z,7.12
2019-03-09T05:29:19.163Z,7.09
2019-03-09T05:30:19.146Z,7.11
2019-03-09T05:31:19.174Z,7.09
2019-03-09T05:32:19.143Z,7.08
2019-03-09T05:33:19.093Z,7.12
2019-03-09T05:34:19.089Z,7.08
2019-03-09T05:35:19.091Z,7.08
2019-03-09T05:36:19.647Z,7.09
2019-03-09T05:37:19.086Z,7.05
2019-03-09T05:38:19.059Z,7.05
2019-03-09T05:39:19.030Z,7.14
2019-03-09T05:40:19.028Z,7.11
2019-03-09T05:41:19.016Z,7.12
2019-03-09T05:42:19.039Z,7.11
2019-03-09T05:43:19.020Z,7.09
2019-03-09T05:44:18.999Z,7.09
2019-03-09T05:45:19.017Z,7.11
2019-03-09T05:46:18.989Z,7.07
2019-03-09T05:47:19.034Z,7.04
2019-03-09T05:48:18.948Z,7.11
2019-03-09T05:49:18.937Z,7.12
2019-03-09T05:50:18.940Z,7.08
2019-03-09T05:51:18.918Z,7.04
2019-03-09T05:52:18.888Z,7.09
2019-03-09T05:53:18.905Z,7.11
2019-03-09T05:54:18.870Z,7.01
2019-03-09T05:55:18.869Z,6.94
2019-03-09T05:56:18.870Z,7.04
2019-03-09T05:57:18.878Z,7.07
2019-03-09T05:58:18.894Z,7.08
2019-03-09T05:59:18.845Z,7.01
2019-03-09T06:00:18.845Z,6.97
2019-03-09T06:01:18.806Z,6.83
2019-03-09T06:02:18.792Z,6.79
2019-03-09T06:03:18.856Z,6.73
2019-03-09T06:04:18.816Z,6.78
2019-03-09T06:05:19.697Z,6.58
2019-03-09T06:06:18.752Z,6.60
2019-03-09T06:07:18.737Z,6.61
2019-03-09T06:08:18.808Z,6.53
2019-03-09T06:09:18.806Z,6.54
2019-03-09T06:10:18.698Z,6.48
2019-03-09T06:11:18.690Z,6.48
2019-03-09T06:12:18.718Z,6.43
2019-03-09T06:13:18.725Z,6.55
2019-03-09T06:14:18.689Z,6.54
2019-03-09T06:15:18.650Z,6.48
2019-03-09T06:16:18.664Z,6.36
2019-03-09T06:17:18.654Z,6.36
2019-03-09T06:18:18.632Z,6.33
2019-03-09T06:19:18.658Z,6.38
2019-03-09T06:20:18.626Z,6.39
2019-03-09T06:21:18.582Z,6.38
2019-03-09T06:22:18.567Z,6.35
2019-03-09T06:23:18.577Z,6.39
2019-03-09T06:24:18.596Z,6.36
2019-03-09T06:25:18.559Z,6.39
2019-03-09T06:26:18.559Z,6.36
2019-03-09T06:27:18.552Z,6.35
2019-03-09T06:28:18.506Z,6.21
2019-03-09T06:29:18.526Z,6.17
2019-03-09T06:30:18.508Z,6.24
2019-03-09T06:31:18.481Z,6.27
2019-03-09T06:32:18.509Z,6.17
2019-03-09T06:33:18.486Z,6.28
2019-03-09T06:34:18.445Z,6.28
2019-03-09T06:35:18.431Z,6.36
2019-03-09T06:36:18.459Z,6.25
2019-03-09T06:37:18.432Z,6.21
2019-03-09T06:38:18.476Z,6.28
2019-03-09T06:39:18.457Z,6.17
2019-03-09T06:40:18.427Z,6.24
2019-03-09T06:41:18.425Z,6.19
2019-03-09T06:42:18.375Z,6.24
2019-03-09T06:43:18.355Z,6.21
2019-03-09T06:44:18.384Z,6.21
2019-03-09T06:45:18.367Z,6.20
2019-03-09T06:46:18.310Z,6.20
2019-03-09T06:47:18.360Z,6.27
2019-03-09T06:48:18.288Z,6.20
2019-03-09T06:49:18.281Z,6.21
2019-03-09T06:50:18.279Z,6.21
2019-03-09T06:51:18.290Z,6.21
2019-03-09T06:52:18.258Z,6.14
2019-03-09T06:53:18.297Z,6.27
2019-03-09T06:54:18.231Z,6.27
2019-03-09T06:55:18.229Z,6.30
2019-03-09T06:56:18.207Z,6.20
2019-03-09T06:57:18.208Z,6.35
2019-03-09T06:58:18.243Z,6.35
2019-03-09T06:59:18.193Z,6.27
2019-03-09T07:00:18.189Z,6.32
2019-03-09T07:01:18.168Z,6.21
2019-03-09T07:02:18.163Z,6.19
2019-03-09T07:03:18.167Z,6.19
2019-03-09T07:04:18.130Z,6.16
2019-03-09T07:05:18.136Z,6.17
2019-03-09T07:06:18.136Z,6.25
2019-03-09T07:07:18.172Z,6.33
2019-03-09T07:08:18.117Z,6.27
2019-03-09T07:09:18.093Z,6.28
2019-03-09T07:10:18.061Z,6.24
2019-03-09T07:11:18.064Z,6.27
2019-03-09T07:12:18.042Z,6.21
2019-03-09T07:13:18.050Z,6.36
2019-03-09T07:14:18.091Z,6.27
2019-03-09T07:15:18.671Z,6.24
2019-03-09T07:16:18.011Z,6.36
2019-03-09T07:17:18.044Z,6.32
2019-03-09T07:18:18.039Z,6.38
2019-03-09T07:19:17.992Z,6.32
2019-03-09T07:20:17.980Z,6.39
2019-03-09T07:21:17.977Z,6.38
2019-03-09T07:22:17.991Z,6.53
2019-03-09T07:23:18.988Z,6.51
2019-03-09T07:24:17.924Z,6.63
2019-03-09T07:25:17.915Z,6.58
2019-03-09T07:26:17.993Z,6.61
2019-03-09T07:27:17.912Z,6.55
2019-03-09T07:28:18.714Z,6.51
2019-03-09T07:29:17.907Z,6.54
2019-03-09T07:30:17.931Z,6.54
2019-03-09T07:31:17.848Z,6.72
2019-03-09T07:32:17.842Z,6.65
2019-03-09T07:33:17.876Z,6.72
2019-03-09T07:34:17.828Z,6.78
2019-03-09T07:35:17.841Z,6.71
2019-03-09T07:36:17.863Z,6.75
2019-03-09T07:37:17.790Z,6.72
2019-03-09T07:38:17.795Z,6.75
2019-03-09T07:39:17.843Z,6.71
2019-03-09T07:40:17.771Z,6.65
2019-03-09T07:41:17.751Z,6.72
2019-03-09T07:42:17.773Z,6.72
2019-03-09T07:43:17.715Z,6.75
2019-03-09T07:44:17.732Z,6.83
2019-03-09T07:45:17.706Z,6.87
2019-03-09T07:46:17.732Z,6.89
2019-03-09T07:47:17.711Z,6.97
2019-03-09T07:48:17.690Z,6.99
2019-03-09T07:49:17.714Z,6.94
2019-03-09T07:50:17.630Z,6.91
2019-03-09T07:51:17.672Z,7.04
2019-03-09T07:52:17.608Z,7.14
2019-03-09T07:53:17.601Z,7.15
2019-03-09T07:54:17.607Z,7.09
2019-03-09T07:55:17.638Z,7.21
2019-03-09T07:56:18.205Z,7.11
2019-03-09T07:57:17.592Z,7.15
2019-03-09T07:58:17.546Z,7.14
2019-03-09T07:59:17.583Z,7.29
2019-03-09T08:00:17.571Z,7.26
2019-03-09T08:01:17.535Z,7.23
2019-03-09T08:02:18.533Z,7.32
2019-03-09T08:03:17.500Z,7.47
2019-03-09T08:04:17.481Z,7.52
2019-03-09T08:05:17.488Z,7.52
2019-03-09T08:06:17.506Z,7.50
2019-03-09T08:07:17.460Z,7.55
2019-03-09T08:08:17.469Z,7.62
2019-03-09T08:09:17.469Z,7.55
2019-03-09T08:10:17.414Z,7.57
2019-03-09T08:11:17.445Z,7.55
2019-03-09T08:12:17.396Z,7.57
2019-03-09T08:13:17.396Z,7.58
2019-03-09T08:14:17.411Z,7.63
2019-03-09T08:15:17.382Z,7.71
2019-03-09T08:16:17.416Z,7.74
2019-03-09T08:17:17.351Z,7.76
2019-03-09T08:18:17.333Z,7.79
2019-03-09T08:19:17.324Z,7.69
2019-03-09T08:20:17.324Z,7.73
2019-03-09T08:21:17.336Z,7.81
2019-03-09T08:22:17.343Z,7.79
2019-03-09T08:23:17.284Z,7.84
2019-03-09T08:24:17.273Z,7.94
2019-03-09T08:25:17.259Z,7.96
2019-03-09T08:26:17.272Z,8.31
2019-03-09T08:27:17.288Z,8.65
2019-03-09T08:28:17.296Z,8.63
2019-03-09T08:29:17.245Z,8.36
2019-03-09T08:30:17.227Z,8.22
2019-03-09T08:31:17.207Z,8.09
2019-03-09T08:32:17.219Z,8.07
2019-03-09T08:33:17.182Z,8.00
2019-03-09T08:34:17.201Z,7.99
2019-03-09T08:35:17.177Z,7.85
2019-03-09T08:36:17.172Z,7.96
2019-03-09T08:37:17.188Z,7.88
2019-03-09T08:38:17.176Z,7.82
2019-03-09T08:39:17.131Z,7.77
2019-03-09T08:40:17.117Z,7.77
2019-03-09T08:41:17.101Z,7.81
2019-03-09T08:42:17.128Z,7.81
2019-03-09T08:43:17.153Z,7.79
2019-03-09T08:44:17.124Z,7.84
2019-03-09T08:45:17.109Z,7.84
2019-03-09T08:46:17.055Z,7.89
2019-03-09T08:47:17.040Z,7.76
2019-03-09T08:48:17.044Z,7.88
2019-03-09T08:49:17.061Z,7.88
2019-03-09T08:50:17.028Z,7.89
2019-03-09T08:51:17.047Z,7.86
2019-03-09T08:52:16.984Z,7.76
2019-03-09T08:53:16.999Z,7.70
2019-03-09T08:54:16.963Z,7.74
2019-03-09T08:55:18.063Z,7.73
2019-03-09T08:56:16.950Z,7.67
2019-03-09T08:57:16.986Z,7.70
2019-03-09T08:58:16.955Z,7.70
2019-03-09T08:59:16.905Z,7.69
2019-03-09T09:00:16.954Z,7.62
2019-03-09T09:01:16.921Z,7.57
2019-03-09T09:02:16.910Z,7.71
2019-03-09T09:03:16.874Z,7.69
2019-03-09T09:04:16.904Z,9.78
2019-03-09T09:05:16.872Z,8.97
2019-03-09T09:06:16.843Z,10.80
2019-03-09T09:07:16.819Z,12.44
2019-03-09T09:08:16.817Z,13.87
2019-03-09T09:09:16.794Z,14.45
2019-03-09T09:10:16.846Z,14.66
2019-03-09T09:11:17.867Z,15.22
2019-03-09T09:12:16.800Z,15.96
2019-03-09T09:13:16.759Z,15.80
2019-03-09T09:14:17.741Z,16.04
2019-03-09T09:15:16.745Z,14.59
2019-03-09T09:16:16.762Z,13.38
2019-03-09T09:17:16.724Z,13.69
2019-03-09T09:18:16.739Z,13.81
2019-03-09T09:19:16.710Z,14.60
2019-03-09T09:20:16.686Z,14.91
2019-03-09T09:21:16.686Z,14.98
2019-03-09T09:22:16.714Z,15.15
2019-03-09T09:23:16.686Z,15.20
2019-03-09T09:24:16.661Z,15.78
2019-03-09T09:25:16.659Z,16.06
2019-03-09T09:26:16.614Z,16.33
2019-03-09T09:27:16.631Z,16.77
2019-03-09T09:28:16.924Z,15.77
2019-03-09T09:29:16.594Z,14.34
2019-03-09T09:30:16.597Z,15.59
2019-03-09T09:31:16.593Z,14.26
2019-03-09T09:32:16.556Z,13.80
2019-03-09T09:33:16.590Z,14.30
2019-03-09T09:34:16.581Z,14.59
2019-03-09T09:35:16.528Z,13.71
2019-03-09T09:36:16.509Z,12.59
2019-03-09T09:37:16.551Z,13.14
2019-03-09T09:38:17.095Z,13.07
2019-03-09T09:39:16.546Z,12.25
2019-03-09T09:40:16.485Z,11.82
2019-03-09T09:41:16.457Z,11.66
2019-03-09T09:42:16.455Z,12.05
2019-03-09T09:43:16.476Z,12.29
2019-03-09T09:44:16.464Z,12.05
2019-03-09T09:45:16.568Z,12.69
2019-03-09T09:46:16.398Z,12.23
2019-03-09T09:47:16.410Z,12.71
2019-03-09T09:48:16.397Z,13.68
2019-03-09T09:49:16.361Z,13.88
2019-03-09T09:50:16.588Z,12.40
2019-03-09T09:51:16.853Z,12.55
2019-03-09T09:52:16.339Z,13.87
2019-03-09T09:53:16.343Z,15.44
2019-03-09T09:54:16.698Z,15.66
2019-03-09T09:55:16.300Z,15.67
2019-03-09T09:56:16.290Z,15.92
2019-03-09T09:57:16.280Z,15.34
2019-03-09T09:58:16.258Z,13.79
2019-03-09T09:59:16.260Z,14.20
2019-03-09T10:00:16.261Z,15.44
2019-03-09T10:01:16.231Z,16.07
2019-03-09T10:02:16.286Z,16.87
2019-03-09T10:03:16.236Z,16.96
2019-03-09T10:04:16.222Z,17.92
2019-03-09T10:05:16.885Z,17.74
2019-03-09T10:06:16.177Z,17.73
2019-03-09T10:07:16.385Z,17.57
2019-03-09T10:08:16.169Z,17.57
2019-03-09T10:09:16.162Z,17.96
2019-03-09T10:10:16.195Z,17.94
2019-03-09T10:11:16.168Z,17.99
2019-03-09T10:12:16.133Z,17.77
2019-03-09T10:13:16.181Z,17.39
2019-03-09T10:14:16.097Z,16.17
2019-03-09T10:15:16.412Z,16.96
2019-03-09T10:16:16.539Z,17.39
2019-03-09T10:17:16.072Z,17.33
2019-03-09T10:18:16.071Z,17.65
2019-03-09T10:19:16.158Z,17.55
2019-03-09T10:20:16.026Z,18.05
2019-03-09T10:21:16.082Z,18.02
2019-03-09T10:22:16.305Z,17.32
2019-03-09T10:23:17.115Z,17.66
2019-03-09T10:24:16.706Z,17.25
2019-03-09T10:25:16.605Z,16.82
2019-03-09T10:26:16.916Z,15.07
2019-03-09T10:27:16.014Z,13.76
2019-03-09T10:28:17.446Z,13.21
2019-03-09T10:29:15.956Z,13.07
2019-03-09T10:30:15.923Z,12.99
2019-03-09T10:31:15.925Z,12.85
2019-03-09T10:32:15.939Z,12.51
2019-03-09T10:33:15.889Z,12.31
2019-03-09T10:34:15.897Z,12.29
2019-03-09T10:35:15.878Z,12.31
2019-03-09T10:36:15.879Z,12.41
2019-03-09T10:37:15.881Z,12.12
2019-03-09T10:38:15.899Z,12.11
2019-03-09T10:39:15.880Z,12.04
2019-03-09T10:40:15.904Z,12.04
2019-03-09T10:41:15.855Z,12.11
2019-03-09T10:42:15.824Z,12.12
2019-03-09T10:43:15.844Z,12.07
2019-03-09T10:44:15.825Z,12.23
2019-03-09T10:45:15.809Z,12.22
2019-03-09T10:46:15.807Z,12.66
2019-03-09T10:47:15.755Z,12.44
2019-03-09T10:48:15.858Z,12.03
2019-03-09T10:49:15.765Z,12.34
2019-03-09T10:50:15.717Z,12.07
2019-03-09T10:51:15.715Z,11.98
2019-03-09T10:52:15.732Z,11.88
2019-03-09T10:53:15.753Z,11.79
2019-03-09T10:54:15.692Z,11.84
2019-03-09T10:55:15.662Z,12.03
2019-03-09T10:56:15.782Z,11.94
2019-03-09T10:57:15.704Z,11.79
2019-03-09T10:58:15.644Z,11.78
2019-03-09T10:59:15.647Z,11.82
2019-03-09T11:00:15.687Z,11.82
2019-03-09T11:01:15.646Z,11.81
2019-03-09T11:02:15.638Z,11.54
2019-03-09T11:03:15.574Z,11.45
2019-03-09T11:04:15.596Z,11.30
2019-03-09T11:05:15.604Z,11.26
2019-03-09T11:06:15.694Z,11.16
2019-03-09T11:07:15.587Z,11.23
2019-03-09T11:08:15.527Z,11.35
2019-03-09T11:09:15.511Z,11.44
2019-03-09T11:10:15.582Z,11.77
2019-03-09T11:11:15.513Z,11.97
2019-03-09T11:12:15.504Z,11.94
2019-03-09T11:13:16.235Z,11.84
2019-03-09T11:14:16.242Z,11.81
2019-03-09T11:15:15.456Z,11.67
2019-03-09T11:16:15.468Z,11.62
2019-03-09T11:17:15.468Z,11.42
2019-03-09T11:18:16.260Z,11.53
2019-03-09T11:19:15.432Z,11.53
2019-03-09T11:20:15.388Z,11.41
2019-03-09T11:21:15.469Z,11.30
2019-03-09T11:22:15.382Z,11.13
2019-03-09T11:23:15.379Z,11.03
2019-03-09T11:24:15.369Z,11.06
2019-03-09T11:25:16.259Z,11.09
2019-03-09T11:26:15.386Z,11.09
2019-03-09T11:27:15.314Z,11.03
2019-03-09T11:28:15.305Z,11.24
2019-03-09T11:29:15.361Z,11.36
2019-03-09T11:30:15.316Z,11.36
2019-03-09T11:31:15.320Z,11.36
2019-03-09T11:32:15.258Z,11.53
2019-03-09T11:33:15.290Z,11.88
2019-03-09T11:34:15.260Z,13.53
2019-03-09T11:35:15.237Z,12.95
2019-03-09T11:36:15.265Z,12.61
2019-03-09T11:37:15.214Z,12.31
2019-03-09T11:38:15.195Z,12.05
2019-03-09T11:39:15.197Z,11.98
2019-03-09T11:40:15.215Z,11.79
2019-03-09T11:41:19.105Z,11.93
2019-03-09T11:42:15.196Z,11.88
2019-03-09T11:43:15.143Z,13.12
2019-03-09T11:44:15.223Z,14.71
2019-03-09T11:45:15.130Z,14.17
2019-03-09T11:46:15.152Z,13.55
2019-03-09T11:47:15.147Z,14.09
2019-03-09T11:48:15.141Z,14.98
2019-03-09T11:49:15.133Z,14.97
2019-03-09T11:50:15.144Z,15.62
2019-03-09T11:51:15.060Z,15.53
2019-03-09T11:52:19.922Z,14.39
2019-03-09T11:53:16.085Z,13.90
2019-03-09T11:54:15.061Z,15.09
2019-03-09T11:55:15.053Z,15.01
2019-03-09T11:56:15.036Z,14.04
2019-03-09T11:57:15.034Z,13.21
2019-03-09T11:58:15.006Z,12.99
2019-03-09T11:59:14.984Z,12.63
2019-03-09T12:00:14.976Z,12.49
2019-03-09T12:01:14.972Z,12.33
2019-03-09T12:02:14.979Z,12.19
2019-03-09T12:03:15.156Z,12.30
2019-03-09T12:04:14.927Z,12.80
2019-03-09T12:05:14.920Z,14.21
2019-03-09T12:06:15.089Z,13.65
2019-03-09T12:07:14.907Z,13.22
2019-03-09T12:08:14.915Z,14.29
2019-03-09T12:09:14.873Z,15.41
2019-03-09T12:10:14.851Z,16.36
2019-03-09T12:11:14.839Z,17.05
2019-03-09T12:12:14.824Z,17.84
2019-03-09T12:13:14.907Z,17.74
2019-03-09T12:14:14.864Z,17.09
2019-03-09T12:15:14.806Z,16.99
2019-03-09T12:16:14.826Z,16.88
2019-03-09T12:17:14.779Z,15.85
2019-03-09T12:18:14.785Z,16.40
2019-03-09T12:19:14.767Z,16.91
2019-03-09T12:20:14.772Z,16.27
2019-03-09T12:21:14.767Z,15.48
2019-03-09T12:22:14.750Z,14.94
2019-03-09T12:23:14.757Z,14.91
2019-03-09T12:24:18.814Z,15.92
2019-03-09T12:25:15.684Z,17.07
2019-03-09T12:26:14.679Z,17.53
2019-03-09T12:27:14.670Z,16.78
2019-03-09T12:28:14.654Z,15.85
2019-03-09T12:29:14.700Z,16.72
2019-03-09T12:30:14.660Z,17.15
2019-03-09T12:31:14.661Z,17.58
2019-03-09T12:32:14.613Z,16.26
2019-03-09T12:33:14.614Z,15.30
2019-03-09T12:34:14.649Z,14.83
2019-03-09T12:35:14.615Z,14.56
2019-03-09T12:36:14.592Z,14.30
2019-03-09T12:37:14.596Z,14.13
2019-03-09T12:38:14.559Z,13.88
2019-03-09T12:39:14.581Z,13.72
2019-03-09T12:40:14.530Z,13.98
2019-03-09T12:41:14.578Z,14.29
2019-03-09T12:42:14.507Z,14.59
2019-03-09T12:43:14.498Z,14.46
2019-03-09T12:44:14.544Z,14.27
2019-03-09T12:45:14.478Z,14.19
2019-03-09T12:46:14.507Z,14.24
2019-03-09T12:47:14.550Z,13.87
2019-03-09T12:48:14.448Z,13.53
2019-03-09T12:49:14.440Z,13.22
2019-03-09T12:50:14.438Z,13.07
2019-03-09T12:51:14.439Z,12.88
2019-03-09T12:52:14.487Z,13.28
2019-03-09T12:53:14.454Z,13.10
2019-03-09T12:54:14.379Z,12.84
2019-03-09T12:55:14.422Z,12.84
2019-03-09T12:56:14.356Z,12.69
2019-03-09T12:57:14.350Z,12.52
2019-03-09T12:58:14.348Z,12.52
2019-03-09T12:59:14.357Z,12.58
2019-03-09T13:00:14.367Z,12.54
2019-03-09T13:01:14.310Z,12.46
2019-03-09T13:02:14.295Z,12.46
2019-03-09T13:03:14.308Z,12.31
2019-03-09T13:04:14.300Z,12.33
2019-03-09T13:05:14.306Z,12.38
2019-03-09T13:06:14.291Z,12.36
2019-03-09T13:07:14.273Z,12.37
2019-03-09T13:08:14.243Z,12.31
2019-03-09T13:09:14.228Z,12.33
2019-03-09T13:10:14.222Z,12.31